Language selection

My Weather Profile Weather Topics  | 

Lake Melville: Past 24 Hour Conditions

 

Mary's Harbour

10:30 PM NDT 09 May 2021
Disclaimer

This table is a summary of hourly weather conditions for the past 24 hours.
Please note that these observations might not always be representative of weather conditions over their associated marine area.

Date / Time
(NDT)
Wind(knots) Conditions Visibility(km) Pressure(kPa) Air tempC) Relative humidity(%) Dew pointC)
09 May 2021
22:30 NNE 11 gust 16 Light Rain 2 99.9 1 100 1
21:30 NNE 9 gust 18 Mist 4 99.9 1 99 1
20:30 NE 16 gust 25 Light Rain 6 100.0 2 99 2
19:30 NE 17 gust 27 Light Rain 3 100.1 1 99 1
18:30 NE 17 gust 25 Light Rain 2 100.2 1 99 1
17:30 NE 20 gust 31 Light Rain 4 100.3 1 98 1
16:30 NE 15 gust 25 Light Rain 2 100.4 1 98 1
15:30 NE 19 gust 30 Light Snow 2 100.5 1 98 0
14:30 NE 13 gust 24 Light Snow 2 100.6 0 99 0
13:30 NE 15 gust 22 Light Snow 1 100.8 0 99 0
12:30 NE 12 gust 20 Light Snow 1 101.0 0 99 0
11:30 NE 15 gust 21 Light Snow 1 101.1 0 99 0
10:30 ENE 15 gust 24 Light Snow 2 101.2 0 98 0
9:30 ENE 15 gust 25 Light Snow 6 101.2 1 93 0
8:30 ENE 14 gust 24 Cloudy 16 101.3 1 92 0
7:30 ENE 15 gust 21 Cloudy 16 101.4 1 92 0
6:30 ENE 13 gust 19 Cloudy 16 101.5 1 92 -1
5:30 ENE 16 gust 22 Cloudy 16 101.6 0 93 -1
4:30 ENE 16 gust 21 Cloudy 16 101.7 0 93 -1
3:30 NE 12 gust 19 Cloudy 16 101.7 0 95 0
2:30 NE 11 gust 17 Cloudy 16 101.9 0 95 -1
1:30 NE 10 Cloudy 16 102.0 0 96 0
0:30 NE 12 Light Rain 13 102.1 1 98 1
08 May 2021
23:30 NE 10 Light Rain 15 102.2 1 98 1
22:30 NE 8 Cloudy 16 102.2 1 98 1

Zoom-in to make a selection

Map of Atlantic - Labrador marine weather areas Kangiqsualujjuaq Airport Cape Kakkiviak Cape Kiglapait Cartwright Airport CFB Goose Bay Hopedale Mary's Harbour Nain Airport Makkovik Airport Saglek Tukialik Bay
Legend:
buoy Buoy
land station Land Station

Atlantic - Labrador Area

Another Region

What we are doing

Date modified: